sensor_id;sensor_type;location;lat;lon;timestamp;pressure;altitude;pressure_sealevel;temperature;humidity
57656;BME280;43482;53.334;6.744;2022-07-29T00:01:28;101999.41;;;14.54;92.43
57656;BME280;43482;53.334;6.744;2022-07-29T00:03:54;101984.25;;;14.47;92.93
57656;BME280;43482;53.334;6.744;2022-07-29T00:06:20;101994.00;;;14.56;92.97
57656;BME280;43482;53.334;6.744;2022-07-29T00:08:46;101996.66;;;14.56;93.78
57656;BME280;43482;53.334;6.744;2022-07-29T00:11:11;101982.13;;;14.50;93.93
57656;BME280;43482;53.334;6.744;2022-07-29T00:13:37;101995.69;;;14.57;94.14
57656;BME280;43482;53.334;6.744;2022-07-29T00:16:03;101992.88;;;14.58;93.59
57656;BME280;43482;53.334;6.744;2022-07-29T00:18:28;101989.53;;;14.56;94.02
57656;BME280;43482;53.334;6.744;2022-07-29T00:20:54;101986.72;;;14.58;93.37
57656;BME280;43482;53.334;6.744;2022-07-29T00:23:19;101988.09;;;14.62;93.47
57656;BME280;43482;53.334;6.744;2022-07-29T00:25:44;101987.78;;;14.65;93.27
57656;BME280;43482;53.334;6.744;2022-07-29T00:28:10;101986.69;;;14.68;92.98
57656;BME280;43482;53.334;6.744;2022-07-29T00:30:35;101987.50;;;14.68;93.10
57656;BME280;43482;53.334;6.744;2022-07-29T00:33:00;101991.44;;;14.64;93.41
57656;BME280;43482;53.334;6.744;2022-07-29T00:35:26;101978.44;;;14.61;93.00
57656;BME280;43482;53.334;6.744;2022-07-29T00:38:14;101987.66;;;14.67;92.70
57656;BME280;43482;53.334;6.744;2022-07-29T00:40:40;101986.38;;;14.71;92.98
57656;BME280;43482;53.334;6.744;2022-07-29T00:43:06;101971.25;;;14.71;92.58
57656;BME280;43482;53.334;6.744;2022-07-29T00:45:32;101969.19;;;14.65;92.59
57656;BME280;43482;53.334;6.744;2022-07-29T00:47:57;101980.47;;;14.77;92.39
57656;BME280;43482;53.334;6.744;2022-07-29T00:50:23;101978.63;;;14.77;92.29
57656;BME280;43482;53.334;6.744;2022-07-29T00:52:50;101968.00;;;14.77;91.74
57656;BME280;43482;53.334;6.744;2022-07-29T00:55:16;101969.00;;;14.76;92.07
57656;BME280;43482;53.334;6.744;2022-07-29T00:57:42;101960.03;;;14.77;91.56
57656;BME280;43482;53.334;6.744;2022-07-29T01:00:11;101964.91;;;14.82;90.96
57656;BME280;43482;53.334;6.744;2022-07-29T01:02:37;101958.75;;;14.81;90.84
57656;BME280;43482;53.334;6.744;2022-07-29T01:05:04;101956.09;;;14.81;91.53
57656;BME280;43482;53.334;6.744;2022-07-29T01:07:30;101961.69;;;14.78;91.86
57656;BME280;43482;53.334;6.744;2022-07-29T01:09:57;101955.72;;;14.76;91.64
57656;BME280;43482;53.334;6.744;2022-07-29T01:12:25;101947.75;;;14.76;92.08
57656;BME280;43482;53.334;6.744;2022-07-29T01:14:52;101944.09;;;14.77;91.24
57656;BME280;43482;53.334;6.744;2022-07-29T01:17:26;101942.25;;;14.78;91.42
57656;BME280;43482;53.334;6.744;2022-07-29T01:20:06;101935.28;;;14.77;90.93
57656;BME280;43482;53.334;6.744;2022-07-29T01:25:32;101940.97;;;14.82;91.12
57656;BME280;43482;53.334;6.744;2022-07-29T01:31:07;101935.81;;;14.80;90.13
57656;BME280;43482;53.334;6.744;2022-07-29T01:33:41;101933.84;;;14.82;90.78
57656;BME280;43482;53.334;6.744;2022-07-29T01:38:54;101916.28;;;14.72;91.54
57656;BME280;43482;53.334;6.744;2022-07-29T01:41:23;101927.47;;;14.75;90.92
57656;BME280;43482;53.334;6.744;2022-07-29T01:43:59;101917.16;;;14.72;91.12
57656;BME280;43482;53.334;6.744;2022-07-29T01:46:31;101921.78;;;14.70;91.63
57656;BME280;43482;53.334;6.744;2022-07-29T01:49:04;101919.72;;;14.64;91.86
57656;BME280;43482;53.334;6.744;2022-07-29T01:51:53;101919.72;;;14.64;91.96
57656;BME280;43482;53.334;6.744;2022-07-29T01:54:42;101919.56;;;14.66;92.22
57656;BME280;43482;53.334;6.744;2022-07-29T01:57:09;101924.25;;;14.72;91.26
57656;BME280;43482;53.334;6.744;2022-07-29T01:59:37;101905.50;;;14.73;91.61
57656;BME280;43482;53.334;6.744;2022-07-29T02:02:02;101912.66;;;14.73;91.94
57656;BME280;43482;53.334;6.744;2022-07-29T02:04:30;101913.94;;;14.69;92.11
57656;BME280;43482;53.334;6.744;2022-07-29T02:07:01;101897.84;;;14.70;92.18
57656;BME280;43482;53.334;6.744;2022-07-29T02:09:28;101904.81;;;14.71;91.97
57656;BME280;43482;53.334;6.744;2022-07-29T02:11:55;101892.59;;;14.60;92.19
57656;BME280;43482;53.334;6.744;2022-07-29T02:14:23;101898.47;;;14.64;92.13
57656;BME280;43482;53.334;6.744;2022-07-29T02:16:52;101890.47;;;14.64;91.83
57656;BME280;43482;53.334;6.744;2022-07-29T02:19:21;101886.91;;;14.55;91.83
57656;BME280;43482;53.334;6.744;2022-07-29T02:21:48;101888.81;;;14.63;91.88
57656;BME280;43482;53.334;6.744;2022-07-29T02:24:14;101892.78;;;14.59;92.56
57656;BME280;43482;53.334;6.744;2022-07-29T02:26:42;101885.78;;;14.58;92.07
57656;BME280;43482;53.334;6.744;2022-07-29T02:29:10;101855.50;;;14.41;92.05
57656;BME280;43482;53.334;6.744;2022-07-29T02:31:39;101872.22;;;14.51;92.22
57656;BME280;43482;53.334;6.744;2022-07-29T02:34:06;101878.50;;;14.60;91.79
57656;BME280;43482;53.334;6.744;2022-07-29T02:36:34;101875.16;;;14.58;91.79
57656;BME280;43482;53.334;6.744;2022-07-29T02:39:02;101849.75;;;14.46;91.16
57656;BME280;43482;53.334;6.744;2022-07-29T02:41:41;101873.50;;;14.57;91.33
57656;BME280;43482;53.334;6.744;2022-07-29T02:44:11;101876.84;;;14.59;91.51
57656;BME280;43482;53.334;6.744;2022-07-29T02:46:42;101869.84;;;14.58;91.43
57656;BME280;43482;53.334;6.744;2022-07-29T02:51:56;101853.03;;;14.39;91.95
57656;BME280;43482;53.334;6.744;2022-07-29T02:54:33;101871.09;;;14.54;92.29
57656;BME280;43482;53.334;6.744;2022-07-29T02:57:09;101872.91;;;14.53;91.87
57656;BME280;43482;53.334;6.744;2022-07-29T02:59:36;101868.56;;;14.52;91.96
57656;BME280;43482;53.334;6.744;2022-07-29T03:02:04;101873.75;;;14.54;91.78
57656;BME280;43482;53.334;6.744;2022-07-29T03:04:32;101874.88;;;14.51;91.65
57656;BME280;43482;53.334;6.744;2022-07-29T03:07:00;101864.25;;;14.51;91.57
57656;BME280;43482;53.334;6.744;2022-07-29T03:09:27;101861.59;;;14.51;91.89
57656;BME280;43482;53.334;6.744;2022-07-29T03:11:53;101862.06;;;14.47;91.63
57656;BME280;43482;53.334;6.744;2022-07-29T03:14:20;101852.41;;;14.46;91.89
57656;BME280;43482;53.334;6.744;2022-07-29T03:16:46;101849.31;;;14.50;91.70
57656;BME280;43482;53.334;6.744;2022-07-29T03:19:12;101836.09;;;14.40;91.46
57656;BME280;43482;53.334;6.744;2022-07-29T03:21:38;101845.28;;;14.46;92.08
57656;BME280;43482;53.334;6.744;2022-07-29T03:24:04;101837.47;;;14.45;92.34
57656;BME280;43482;53.334;6.744;2022-07-29T03:26:29;101846.41;;;14.44;92.09
57656;BME280;43482;53.334;6.744;2022-07-29T03:28:55;101843.47;;;14.47;91.91
57656;BME280;43482;53.334;6.744;2022-07-29T03:31:20;101846.41;;;14.44;91.85
57656;BME280;43482;53.334;6.744;2022-07-29T03:33:46;101832.66;;;14.30;91.60
57656;BME280;43482;53.334;6.744;2022-07-29T03:36:11;101843.38;;;14.38;91.57
57656;BME280;43482;53.334;6.744;2022-07-29T03:38:37;101830.56;;;14.34;92.14
57656;BME280;43482;53.334;6.744;2022-07-29T03:41:06;101827.22;;;14.32;92.05
57656;BME280;43482;53.334;6.744;2022-07-29T03:43:36;101833.66;;;14.29;92.20
57656;BME280;43482;53.334;6.744;2022-07-29T03:46:03;101845.34;;;14.36;91.95
57656;BME280;43482;53.334;6.744;2022-07-29T03:48:32;101843.09;;;14.42;92.02
57656;BME280;43482;53.334;6.744;2022-07-29T03:51:00;101839.19;;;14.36;91.63
57656;BME280;43482;53.334;6.744;2022-07-29T03:53:26;101840.25;;;14.43;91.69
57656;BME280;43482;53.334;6.744;2022-07-29T03:55:54;101839.06;;;14.37;92.14
57656;BME280;43482;53.334;6.744;2022-07-29T03:58:26;101837.78;;;14.42;91.76
57656;BME280;43482;53.334;6.744;2022-07-29T04:00:52;101836.41;;;14.37;92.16
57656;BME280;43482;53.334;6.744;2022-07-29T04:03:18;101835.56;;;14.37;92.33
57656;BME280;43482;53.334;6.744;2022-07-29T04:05:44;101845.06;;;14.39;92.54
57656;BME280;43482;53.334;6.744;2022-07-29T04:08:09;101839.75;;;14.39;92.86
57656;BME280;43482;53.334;6.744;2022-07-29T04:10:35;101835.78;;;14.44;92.53
57656;BME280;43482;53.334;6.744;2022-07-29T04:13:00;101814.38;;;14.27;91.88
57656;BME280;43482;53.334;6.744;2022-07-29T04:15:26;101838.44;;;14.44;92.24
57656;BME280;43482;53.334;6.744;2022-07-29T04:17:54;101824.88;;;14.47;92.54
57656;BME280;43482;53.334;6.744;2022-07-29T04:20:19;101820.38;;;14.47;92.13
57656;BME280;43482;53.334;6.744;2022-07-29T04:22:44;101831.00;;;14.47;92.11
57656;BME280;43482;53.334;6.744;2022-07-29T04:25:10;101822.81;;;14.40;92.26
57656;BME280;43482;53.334;6.744;2022-07-29T04:27:35;101822.91;;;14.49;92.40
57656;BME280;43482;53.334;6.744;2022-07-29T04:30:01;101827.63;;;14.55;92.30
57656;BME280;43482;53.334;6.744;2022-07-29T04:32:26;101827.47;;;14.56;91.89
57656;BME280;43482;53.334;6.744;2022-07-29T04:34:52;101827.69;;;14.63;91.12
57656;BME280;43482;53.334;6.744;2022-07-29T04:37:18;101831.81;;;14.57;91.98
57656;BME280;43482;53.334;6.744;2022-07-29T04:39:43;101831.66;;;14.59;92.08
57656;BME280;43482;53.334;6.744;2022-07-29T04:42:09;101821.41;;;14.64;91.66
57656;BME280;43482;53.334;6.744;2022-07-29T04:44:34;101827.78;;;14.71;91.53
57656;BME280;43482;53.334;6.744;2022-07-29T04:46:59;101830.13;;;14.74;90.73
57656;BME280;43482;53.334;6.744;2022-07-29T04:49:25;101829.50;;;14.80;90.74
57656;BME280;43482;53.334;6.744;2022-07-29T04:51:50;101800.28;;;14.63;90.34
57656;BME280;43482;53.334;6.744;2022-07-29T04:54:15;101829.13;;;14.75;91.00
57656;BME280;43482;53.334;6.744;2022-07-29T04:56:41;101835.13;;;14.77;91.33
57656;BME280;43482;53.334;6.744;2022-07-29T04:59:06;101824.25;;;14.89;90.57
57656;BME280;43482;53.334;6.744;2022-07-29T05:01:32;101824.88;;;14.82;90.40
57656;BME280;43482;53.334;6.744;2022-07-29T05:03:57;101814.94;;;14.67;90.79
57656;BME280;43482;53.334;6.744;2022-07-29T05:06:23;101805.47;;;14.64;90.51
57656;BME280;43482;53.334;6.744;2022-07-29T05:08:48;101823.91;;;14.84;90.51
57656;BME280;43482;53.334;6.744;2022-07-29T05:11:13;101822.97;;;14.93;89.91
57656;BME280;43482;53.334;6.744;2022-07-29T05:13:39;101826.16;;;14.96;89.38
57656;BME280;43482;53.334;6.744;2022-07-29T05:16:04;101805.97;;;14.86;89.64
57656;BME280;43482;53.334;6.744;2022-07-29T05:18:30;101825.28;;;14.96;89.94
57656;BME280;43482;53.334;6.744;2022-07-29T05:20:55;101817.56;;;14.85;89.78
57656;BME280;43482;53.334;6.744;2022-07-29T05:23:21;101811.34;;;14.94;89.37
57656;BME280;43482;53.334;6.744;2022-07-29T05:25:46;101822.09;;;15.10;88.62
57656;BME280;43482;53.334;6.744;2022-07-29T05:28:12;101820.78;;;15.14;88.65
57656;BME280;43482;53.334;6.744;2022-07-29T05:30:37;101819.63;;;15.17;87.97
57656;BME280;43482;53.334;6.744;2022-07-29T05:33:03;101818.59;;;15.10;87.59
57656;BME280;43482;53.334;6.744;2022-07-29T05:35:28;101825.97;;;15.16;87.79
57656;BME280;43482;53.334;6.744;2022-07-29T05:37:54;101813.50;;;15.16;87.63
57656;BME280;43482;53.334;6.744;2022-07-29T05:40:19;101804.03;;;15.22;87.24
57656;BME280;43482;53.334;6.744;2022-07-29T05:42:45;101810.84;;;15.16;87.56
57656;BME280;43482;53.334;6.744;2022-07-29T05:45:10;101805.78;;;15.39;86.84
57656;BME280;43482;53.334;6.744;2022-07-29T05:47:36;101803.19;;;15.48;86.62
57656;BME280;43482;53.334;6.744;2022-07-29T05:50:01;101792.16;;;15.34;86.05
57656;BME280;43482;53.334;6.744;2022-07-29T05:52:27;101815.19;;;15.52;85.94
57656;BME280;43482;53.334;6.744;2022-07-29T05:54:52;101815.06;;;15.61;85.97
57656;BME280;43482;53.334;6.744;2022-07-29T05:57:22;101818.88;;;15.59;85.86
57656;BME280;43482;53.334;6.744;2022-07-29T05:59:48;101820.06;;;15.64;85.48
57656;BME280;43482;53.334;6.744;2022-07-29T06:02:14;101806.50;;;15.76;85.75
57656;BME280;43482;53.334;6.744;2022-07-29T06:04:40;101800.50;;;15.74;84.65
57656;BME280;43482;53.334;6.744;2022-07-29T06:07:06;101809.91;;;15.94;84.47
57656;BME280;43482;53.334;6.744;2022-07-29T06:09:32;101815.63;;;16.16;83.59
57656;BME280;43482;53.334;6.744;2022-07-29T06:11:58;101806.63;;;16.17;83.70
57656;BME280;43482;53.334;6.744;2022-07-29T06:14:24;101794.59;;;16.04;82.42
57656;BME280;43482;53.334;6.744;2022-07-29T06:16:50;101806.97;;;16.22;82.74
57656;BME280;43482;53.334;6.744;2022-07-29T06:19:15;101791.66;;;16.16;82.44
57656;BME280;43482;53.334;6.744;2022-07-29T06:21:42;101815.47;;;16.25;81.84
57656;BME280;43482;53.334;6.744;2022-07-29T06:24:07;101807.66;;;16.32;81.75
57656;BME280;43482;53.334;6.744;2022-07-29T06:26:33;101821.00;;;16.40;81.24
57656;BME280;43482;53.334;6.744;2022-07-29T06:28:58;101818.50;;;16.47;80.32
57656;BME280;43482;53.334;6.744;2022-07-29T06:31:24;101813.84;;;16.57;80.21
57656;BME280;43482;53.334;6.744;2022-07-29T06:33:49;101822.03;;;16.80;79.42
57656;BME280;43482;53.334;6.744;2022-07-29T06:36:14;101819.72;;;16.85;79.04
57656;BME280;43482;53.334;6.744;2022-07-29T06:38:40;101817.50;;;16.73;79.74
57656;BME280;43482;53.334;6.744;2022-07-29T06:41:08;101822.53;;;16.92;79.02
57656;BME280;43482;53.334;6.744;2022-07-29T06:43:39;101830.81;;;16.56;78.81
57656;BME280;43482;53.334;6.744;2022-07-29T06:46:10;101825.00;;;16.61;79.08
57656;BME280;43482;53.334;6.744;2022-07-29T06:48:38;101830.03;;;16.80;79.10
57656;BME280;43482;53.334;6.744;2022-07-29T06:51:05;101841.00;;;17.02;78.57
57656;BME280;43482;53.334;6.744;2022-07-29T06:53:32;101846.28;;;17.35;78.38
57656;BME280;43482;53.334;6.744;2022-07-29T06:55:58;101830.28;;;17.43;77.21
57656;BME280;43482;53.334;6.744;2022-07-29T06:58:26;101836.94;;;17.39;77.51
57656;BME280;43482;53.334;6.744;2022-07-29T07:00:52;101830.16;;;17.84;77.34
57656;BME280;43482;53.334;6.744;2022-07-29T07:03:18;101833.41;;;18.02;75.97
57656;BME280;43482;53.334;6.744;2022-07-29T07:05:43;101822.84;;;17.69;75.61
57656;BME280;43482;53.334;6.744;2022-07-29T07:08:09;101842.50;;;17.77;76.12
57656;BME280;43482;53.334;6.744;2022-07-29T07:10:35;101839.44;;;17.96;75.93
57656;BME280;43482;53.334;6.744;2022-07-29T07:13:01;101847.09;;;17.52;75.52
57656;BME280;43482;53.334;6.744;2022-07-29T07:15:27;101853.16;;;17.77;76.31
57656;BME280;43482;53.334;6.744;2022-07-29T07:17:53;101840.47;;;17.87;74.36
57656;BME280;43482;53.334;6.744;2022-07-29T07:20:18;101836.03;;;18.11;75.55
57656;BME280;43482;53.334;6.744;2022-07-29T07:22:44;101827.84;;;18.35;73.97
57656;BME280;43482;53.334;6.744;2022-07-29T07:25:10;101844.13;;;18.48;73.33
57656;BME280;43482;53.334;6.744;2022-07-29T07:27:36;101849.75;;;18.62;73.21
57656;BME280;43482;53.334;6.744;2022-07-29T07:30:06;101851.31;;;18.79;72.96
57656;BME280;43482;53.334;6.744;2022-07-29T07:32:35;101845.66;;;19.42;71.99
57656;BME280;43482;53.334;6.744;2022-07-29T07:35:00;101831.09;;;19.74;69.77
57656;BME280;43482;53.334;6.744;2022-07-29T07:37:26;101848.34;;;19.57;69.82
57656;BME280;43482;53.334;6.744;2022-07-29T07:39:52;101838.03;;;19.01;72.04
57656;BME280;43482;53.334;6.744;2022-07-29T07:42:18;101846.69;;;19.26;72.61
57656;BME280;43482;53.334;6.744;2022-07-29T07:44:44;101843.38;;;19.39;71.37
57656;BME280;43482;53.334;6.744;2022-07-29T07:47:11;101849.72;;;19.67;70.29
57656;BME280;43482;53.334;6.744;2022-07-29T07:49:37;101838.47;;;19.87;69.85
57656;BME280;43482;53.334;6.744;2022-07-29T07:52:02;101841.25;;;19.79;69.30
57656;BME280;43482;53.334;6.744;2022-07-29T07:54:28;101841.34;;;19.85;69.45
57656;BME280;43482;53.334;6.744;2022-07-29T07:56:53;101840.97;;;19.44;70.69
57656;BME280;43482;53.334;6.744;2022-07-29T07:59:19;101841.50;;;19.24;70.65
57656;BME280;43482;53.334;6.744;2022-07-29T08:01:44;101836.97;;;19.10;71.74
57656;BME280;43482;53.334;6.744;2022-07-29T08:04:09;101838.63;;;19.11;71.80
57656;BME280;43482;53.334;6.744;2022-07-29T08:06:35;101839.34;;;19.05;71.22
57656;BME280;43482;53.334;6.744;2022-07-29T08:09:03;101831.72;;;18.79;72.13
57656;BME280;43482;53.334;6.744;2022-07-29T08:11:29;101845.91;;;19.02;71.73
57656;BME280;43482;53.334;6.744;2022-07-29T08:13:54;101838.69;;;18.88;70.58
57656;BME280;43482;53.334;6.744;2022-07-29T08:16:20;101844.63;;;18.75;71.35
57656;BME280;43482;53.334;6.744;2022-07-29T08:18:46;101847.28;;;18.75;71.33
57656;BME280;43482;53.334;6.744;2022-07-29T08:21:12;101841.53;;;18.86;72.41
57656;BME280;43482;53.334;6.744;2022-07-29T08:23:38;101844.28;;;18.78;73.52
57656;BME280;43482;53.334;6.744;2022-07-29T08:26:08;101847.47;;;18.97;72.10
57656;BME280;43482;53.334;6.744;2022-07-29T08:28:39;101841.16;;;18.89;72.13
57656;BME280;43482;53.334;6.744;2022-07-29T08:31:05;101837.69;;;19.04;71.61
57656;BME280;43482;53.334;6.744;2022-07-29T08:33:32;101843.25;;;19.17;72.17
57656;BME280;43482;53.334;6.744;2022-07-29T08:35:57;101843.34;;;19.24;71.99
57656;BME280;43482;53.334;6.744;2022-07-29T08:38:22;101838.75;;;19.77;70.86
57656;BME280;43482;53.334;6.744;2022-07-29T08:40:48;101840.03;;;19.96;69.37
57656;BME280;43482;53.334;6.744;2022-07-29T08:43:13;101828.72;;;20.37;69.08
57656;BME280;43482;53.334;6.744;2022-07-29T08:45:44;101834.25;;;20.72;66.74
57656;BME280;43482;53.334;6.744;2022-07-29T08:48:19;101839.56;;;20.93;65.07
57656;BME280;43482;53.334;6.744;2022-07-29T08:50:46;101837.03;;;21.13;65.13
57656;BME280;43482;53.334;6.744;2022-07-29T08:53:15;101836.34;;;21.05;64.49
57656;BME280;43482;53.334;6.744;2022-07-29T08:55:48;101846.88;;;21.63;62.71
57656;BME280;43482;53.334;6.744;2022-07-29T08:58:15;101848.59;;;21.42;64.17
57656;BME280;43482;53.334;6.744;2022-07-29T09:00:43;101850.22;;;21.36;63.51
57656;BME280;43482;53.334;6.744;2022-07-29T09:03:10;101841.34;;;21.08;63.84
57656;BME280;43482;53.334;6.744;2022-07-29T09:05:41;101845.22;;;20.77;64.13
57656;BME280;43482;53.334;6.744;2022-07-29T09:08:07;101837.03;;;20.64;64.18
57656;BME280;43482;53.334;6.744;2022-07-29T09:10:35;101839.47;;;20.80;64.61
57656;BME280;43482;53.334;6.744;2022-07-29T09:13:00;101838.75;;;21.21;62.97
57656;BME280;43482;53.334;6.744;2022-07-29T09:15:25;101828.28;;;20.77;63.47
57656;BME280;43482;53.334;6.744;2022-07-29T09:17:51;101840.06;;;20.75;65.62
57656;BME280;43482;53.334;6.744;2022-07-29T09:20:19;101832.19;;;20.74;65.63
57656;BME280;43482;53.334;6.744;2022-07-29T09:22:45;101830.94;;;20.98;65.13
57656;BME280;43482;53.334;6.744;2022-07-29T09:25:34;101799.09;;;20.88;65.02
57656;BME280;43482;53.334;6.744;2022-07-29T09:28:10;101827.00;;;21.29;63.36
57656;BME280;43482;53.334;6.744;2022-07-29T09:30:56;101824.72;;;21.54;63.12
57656;BME280;43482;53.334;6.744;2022-07-29T09:33:24;101833.16;;;21.23;62.65
57656;BME280;43482;53.334;6.744;2022-07-29T09:36:06;101827.06;;;20.79;63.20
57656;BME280;43482;53.334;6.744;2022-07-29T09:38:33;101822.59;;;20.86;65.58
57656;BME280;43482;53.334;6.744;2022-07-29T09:41:00;101831.22;;;21.10;64.90
57656;BME280;43482;53.334;6.744;2022-07-29T09:43:26;101827.28;;;21.06;64.20
57656;BME280;43482;53.334;6.744;2022-07-29T09:45:51;101827.06;;;21.07;64.02
57656;BME280;43482;53.334;6.744;2022-07-29T09:48:19;101836.53;;;21.31;63.93
57656;BME280;43482;53.334;6.744;2022-07-29T09:50:46;101834.31;;;21.07;65.28
57656;BME280;43482;53.334;6.744;2022-07-29T09:53:33;101827.34;;;20.84;64.48
57656;BME280;43482;53.334;6.744;2022-07-29T09:55:59;101830.47;;;20.45;66.40
57656;BME280;43482;53.334;6.744;2022-07-29T09:58:24;101823.94;;;20.54;66.76
57656;BME280;43482;53.334;6.744;2022-07-29T10:00:51;101826.16;;;20.50;65.82
57656;BME280;43482;53.334;6.744;2022-07-29T10:03:18;101827.63;;;20.53;66.12
57656;BME280;43482;53.334;6.744;2022-07-29T10:05:44;101819.03;;;20.58;66.16
57656;BME280;43482;53.334;6.744;2022-07-29T10:08:11;101822.19;;;20.61;66.78
57656;BME280;43482;53.334;6.744;2022-07-29T10:10:39;101821.44;;;20.95;67.28
57656;BME280;43482;53.334;6.744;2022-07-29T10:13:08;101824.59;;;21.06;66.37
57656;BME280;43482;53.334;6.744;2022-07-29T10:15:36;101823.78;;;20.84;67.64
57656;BME280;43482;53.334;6.744;2022-07-29T10:18:03;101817.72;;;20.96;66.84
57656;BME280;43482;53.334;6.744;2022-07-29T10:20:29;101818.06;;;20.87;67.62
57656;BME280;43482;53.334;6.744;2022-07-29T10:22:55;101822.03;;;20.69;67.56
57656;BME280;43482;53.334;6.744;2022-07-29T10:25:21;101818.28;;;20.64;68.41
57656;BME280;43482;53.334;6.744;2022-07-29T10:27:48;101827.34;;;21.12;67.46
57656;BME280;43482;53.334;6.744;2022-07-29T10:30:15;101816.00;;;21.17;66.58
57656;BME280;43482;53.334;6.744;2022-07-29T10:35:31;101820.81;;;21.28;65.18
57656;BME280;43482;53.334;6.744;2022-07-29T10:44:01;101807.91;;;20.82;66.25
57656;BME280;43482;53.334;6.744;2022-07-29T10:46:28;101819.38;;;20.98;67.42
57656;BME280;43482;53.334;6.744;2022-07-29T10:49:21;101817.59;;;21.11;68.45
57656;BME280;43482;53.334;6.744;2022-07-29T10:54:42;101809.06;;;21.71;67.76
57656;BME280;43482;53.334;6.744;2022-07-29T10:57:17;101806.50;;;22.04;65.83
57656;BME280;43482;53.334;6.744;2022-07-29T10:59:45;101805.66;;;21.97;64.61
57656;BME280;43482;53.334;6.744;2022-07-29T11:02:46;101807.31;;;21.91;66.23
57656;BME280;43482;53.334;6.744;2022-07-29T11:05:17;101814.09;;;21.87;65.37
57656;BME280;43482;53.334;6.744;2022-07-29T11:08:23;101817.09;;;22.12;65.39
57656;BME280;43482;53.334;6.744;2022-07-29T11:11:15;101817.25;;;21.97;63.99
57656;BME280;43482;53.334;6.744;2022-07-29T11:16:15;101806.78;;;22.23;63.76
57656;BME280;43482;53.334;6.744;2022-07-29T11:21:36;101800.59;;;22.62;63.51
57656;BME280;43482;53.334;6.744;2022-07-29T11:24:15;101802.28;;;22.83;63.84
57656;BME280;43482;53.334;6.744;2022-07-29T11:26:41;101812.59;;;23.19;63.25
57656;BME280;43482;53.334;6.744;2022-07-29T11:29:16;101802.09;;;22.65;63.76
57656;BME280;43482;53.334;6.744;2022-07-29T11:31:45;101806.22;;;22.61;64.09
57656;BME280;43482;53.334;6.744;2022-07-29T11:34:21;101808.13;;;21.98;65.85
57656;BME280;43482;53.334;6.744;2022-07-29T11:39:42;101803.09;;;22.37;66.19
57656;BME280;43482;53.334;6.744;2022-07-29T11:47:37;101807.03;;;23.01;63.66
57656;BME280;43482;53.334;6.744;2022-07-29T11:50:05;101798.53;;;23.11;63.17
57656;BME280;43482;53.334;6.744;2022-07-29T11:52:39;101797.31;;;22.80;63.08
57656;BME280;43482;53.334;6.744;2022-07-29T11:55:19;101801.03;;;22.59;61.36
57656;BME280;43482;53.334;6.744;2022-07-29T11:57:55;101798.66;;;23.36;60.46
57656;BME280;43482;53.334;6.744;2022-07-29T12:02:53;101792.75;;;23.07;58.88
57656;BME280;43482;53.334;6.744;2022-07-29T12:05:19;101793.72;;;23.33;59.66
57656;BME280;43482;53.334;6.744;2022-07-29T12:07:45;101781.22;;;23.45;59.89
57656;BME280;43482;53.334;6.744;2022-07-29T12:10:10;101782.16;;;24.41;57.19
57656;BME280;43482;53.334;6.744;2022-07-29T12:12:36;101795.75;;;24.59;57.09
57656;BME280;43482;53.334;6.744;2022-07-29T12:15:17;101784.28;;;25.08;55.62
57656;BME280;43482;53.334;6.744;2022-07-29T12:17:46;101802.47;;;25.74;55.28
57656;BME280;43482;53.334;6.744;2022-07-29T12:20:12;101794.50;;;25.79;55.12
57656;BME280;43482;53.334;6.744;2022-07-29T12:22:42;101787.75;;;25.52;54.48
57656;BME280;43482;53.334;6.744;2022-07-29T12:25:11;101769.50;;;24.92;54.51
57656;BME280;43482;53.334;6.744;2022-07-29T12:27:38;101775.81;;;25.04;54.90
57656;BME280;43482;53.334;6.744;2022-07-29T12:30:15;101786.22;;;24.82;56.58
57656;BME280;43482;53.334;6.744;2022-07-29T12:32:45;101787.50;;;25.41;55.32
57656;BME280;43482;53.334;6.744;2022-07-29T12:35:13;101778.41;;;24.49;56.38
57656;BME280;43482;53.334;6.744;2022-07-29T12:37:41;101789.81;;;25.19;55.87
57656;BME280;43482;53.334;6.744;2022-07-29T12:40:10;101769.34;;;25.60;55.27
57656;BME280;43482;53.334;6.744;2022-07-29T12:42:36;101785.66;;;26.44;54.77
57656;BME280;43482;53.334;6.744;2022-07-29T12:45:03;101771.56;;;26.66;53.96
57656;BME280;43482;53.334;6.744;2022-07-29T12:47:29;101775.06;;;27.02;52.17
57656;BME280;43482;53.334;6.744;2022-07-29T12:50:12;101774.22;;;26.54;52.53
57656;BME280;43482;53.334;6.744;2022-07-29T12:52:40;101763.75;;;25.92;53.97
57656;BME280;43482;53.334;6.744;2022-07-29T12:55:06;101769.09;;;25.50;55.54
57656;BME280;43482;53.334;6.744;2022-07-29T12:57:32;101768.38;;;25.73;54.98
57656;BME280;43482;53.334;6.744;2022-07-29T13:02:28;101763.69;;;25.80;54.70
57656;BME280;43482;53.334;6.744;2022-07-29T13:04:58;101763.78;;;25.43;54.38
57656;BME280;43482;53.334;6.744;2022-07-29T13:07:25;101773.97;;;25.23;56.29
57656;BME280;43482;53.334;6.744;2022-07-29T13:09:52;101774.41;;;25.57;54.79
57656;BME280;43482;53.334;6.744;2022-07-29T13:12:17;101765.78;;;25.11;55.53
57656;BME280;43482;53.334;6.744;2022-07-29T13:14:47;101754.22;;;24.60;57.37
57656;BME280;43482;53.334;6.744;2022-07-29T13:17:21;101759.38;;;24.87;56.32
57656;BME280;43482;53.334;6.744;2022-07-29T13:20:07;101760.63;;;24.84;56.00
57656;BME280;43482;53.334;6.744;2022-07-29T13:22:34;101762.31;;;24.60;57.68
57656;BME280;43482;53.334;6.744;2022-07-29T13:25:01;101762.56;;;24.59;58.34
57656;BME280;43482;53.334;6.744;2022-07-29T13:27:33;101759.53;;;24.74;57.43
57656;BME280;43482;53.334;6.744;2022-07-29T13:30:00;101765.34;;;24.71;57.62
57656;BME280;43482;53.334;6.744;2022-07-29T13:32:27;101765.53;;;24.51;57.95
57656;BME280;43482;53.334;6.744;2022-07-29T13:34:53;101766.28;;;24.58;58.76
57656;BME280;43482;53.334;6.744;2022-07-29T13:37:19;101754.88;;;24.81;57.82